Time;durP1;ratioP1;P1;durP2;ratioP2;P2;SDS_P1;SDS_P2;PMS_P1;PMS_P2;Temp;Humidity;BMP_temperature;BMP_pressure;BME280_temperature;BME280_humidity;BME280_pressure;Samples;Min_cycle;Max_cycle;Signal;HPM_P1;HPM_P2
2022/12/07 00:01:07;;;;;;;3.42;2.10;;;9.00;99.90;;;;;;5111989;28;20028;-52
2022/12/07 01:14:16;;;;;;;2.47;2.00;;;9.20;99.90;;;;;;5111185;28;20065;-57
2022/12/07 01:16:41;;;;;;;2.45;2.10;;;9.20;99.90;;;;;;5111093;28;20023;-57
2022/12/07 01:19:07;;;;;;;2.88;2.20;;;9.20;99.90;;;;;;5109408;28;20024;-58
2022/12/07 01:21:35;;;;;;;3.63;2.33;;;9.30;99.90;;;;;;5111094;28;20115;-53
2022/12/07 01:24:02;;;;;;;2.72;2.17;;;9.30;99.90;;;;;;5111072;28;20077;-56
2022/12/07 01:26:28;;;;;;;3.00;1.95;;;9.20;99.90;;;;;;5111417;28;20054;-56
2022/12/07 01:28:55;;;;;;;2.63;2.35;;;9.30;99.90;;;;;;5110554;28;20059;-55
2022/12/07 01:31:23;;;;;;;3.10;2.05;;;9.20;99.90;;;;;;5110953;28;20473;-56
2022/12/07 01:33:51;;;;;;;3.42;2.40;;;9.20;99.90;;;;;;5111070;28;20020;-54
2022/12/07 02:30:44;;;;;;;4.18;2.83;;;9.20;99.90;;;;;;5113822;28;20046;-55
2022/12/07 02:33:19;;;;;;;3.30;2.20;;;9.20;99.90;;;;;;5113710;28;20082;-53
2022/12/07 02:36:10;;;;;;;3.97;2.40;;;9.20;99.90;;;;;;5112485;28;20020;-56
2022/12/07 02:38:44;;;;;;;3.20;2.40;;;9.10;99.90;;;;;;5111799;28;20519;-57
2022/12/07 02:41:24;;;;;;;3.45;2.40;;;9.10;99.90;;;;;;5113560;28;20087;-55
2022/12/07 02:43:56;;;;;;;4.30;2.45;;;9.10;99.90;;;;;;5113577;28;20027;-55
2022/12/07 02:46:37;;;;;;;3.67;2.30;;;9.10;99.90;;;;;;5113420;28;20031;-56
2022/12/07 02:49:03;;;;;;;2.38;1.95;;;9.10;99.90;;;;;;5113017;28;20023;-53
2022/12/07 02:51:33;;;;;;;3.28;2.53;;;9.00;99.90;;;;;;5113310;27;20034;-55
2022/12/07 02:53:59;;;;;;;4.13;2.28;;;9.00;99.90;;;;;;5113179;28;20038;-53
2022/12/07 02:56:43;;;;;;;3.17;2.60;;;9.00;99.90;;;;;;5113291;28;20024;-56
2022/12/07 02:59:47;;;;;;;3.40;2.30;;;8.90;99.90;;;;;;5112815;28;20114;-57
2022/12/07 03:02:28;;;;;;;2.58;2.22;;;8.90;99.90;;;;;;5112989;28;20024;-58
2022/12/07 03:05:05;;;;;;;3.58;2.80;;;8.90;99.90;;;;;;5113179;28;20026;-53
2022/12/07 03:07:34;;;;;;;3.25;2.58;;;9.00;99.90;;;;;;5112833;28;20030;-54
2022/12/07 03:10:18;;;;;;;3.42;2.70;;;9.00;99.90;;;;;;5112596;28;20028;-53
2022/12/07 03:12:49;;;;;;;3.40;2.42;;;9.10;99.90;;;;;;5112864;28;20489;-54
2022/12/07 03:15:31;;;;;;;3.15;2.60;;;9.20;99.90;;;;;;5112906;28;20024;-54
2022/12/07 03:18:02;;;;;;;2.75;2.00;;;9.20;99.90;;;;;;5112434;28;20378;-54
2022/12/07 03:20:31;;;;;;;3.45;2.38;;;9.20;99.90;;;;;;5112692;28;20058;-57
2022/12/07 03:22:59;;;;;;;3.15;2.40;;;9.20;99.90;;;;;;5112755;28;20027;-55
2022/12/07 03:25:25;;;;;;;3.97;2.80;;;9.20;99.90;;;;;;5112659;28;20027;-53
2022/12/07 03:28:01;;;;;;;2.88;2.45;;;9.20;99.90;;;;;;5112346;28;20035;-55
2022/12/07 03:30:38;;;;;;;2.60;2.20;;;9.20;99.90;;;;;;5112664;28;20024;-58
2022/12/07 03:33:19;;;;;;;3.20;2.60;;;9.20;99.90;;;;;;5112602;28;20024;-54
2022/12/07 03:35:49;;;;;;;3.03;2.22;;;9.20;99.90;;;;;;5112455;28;20069;-56
2022/12/07 03:38:18;;;;;;;3.25;2.60;;;9.20;99.90;;;;;;5111912;28;20024;-53
2022/12/07 03:40:46;;;;;;;3.70;2.35;;;9.10;99.90;;;;;;5112329;28;20042;-56
2022/12/07 03:43:12;;;;;;;3.33;2.58;;;9.10;99.90;;;;;;5111805;28;20024;-55
2022/12/07 03:45:43;;;;;;;3.30;2.50;;;9.00;99.90;;;;;;5112412;28;20496;-59
2022/12/07 03:48:28;;;;;;;3.72;2.63;;;9.00;99.90;;;;;;5111598;28;20485;-58
2022/12/07 03:51:06;;;;;;;3.03;2.50;;;9.00;99.90;;;;;;5111240;28;20243;-56
2022/12/07 03:53:48;;;;;;;3.28;2.58;;;9.00;99.90;;;;;;5112315;28;20347;-58
2022/12/07 03:56:15;;;;;;;3.17;2.45;;;9.00;99.90;;;;;;5110934;28;20035;-59
2022/12/07 03:58:41;;;;;;;3.75;2.58;;;8.90;99.90;;;;;;5110693;28;20028;-56
2022/12/07 04:01:07;;;;;;;3.90;2.45;;;8.90;99.90;;;;;;5112122;28;20035;-58
2022/12/07 04:03:32;;;;;;;3.85;2.80;;;8.90;99.90;;;;;;5112088;28;20389;-55
2022/12/07 04:05:59;;;;;;;5.78;2.97;;;8.90;99.90;;;;;;5112154;28;20228;-54
2022/12/07 04:08:25;;;;;;;2.75;2.38;;;9.00;99.90;;;;;;5111576;28;20081;-54
2022/12/07 04:10:50;;;;;;;3.05;2.55;;;9.00;99.90;;;;;;5111899;28;20054;-53
2022/12/07 04:13:16;;;;;;;3.13;2.45;;;9.10;99.90;;;;;;5111403;28;20485;-58
2022/12/07 04:15:41;;;;;;;3.65;2.60;;;9.10;99.90;;;;;;5110497;28;20031;-53
2022/12/07 04:18:07;;;;;;;3.08;2.58;;;9.20;99.90;;;;;;5111219;28;20297;-54
2022/12/07 04:20:33;;;;;;;3.83;2.72;;;9.20;99.90;;;;;;5111762;28;20023;-57
2022/12/07 04:22:58;;;;;;;3.78;2.40;;;9.20;99.90;;;;;;5111835;28;20469;-54
2022/12/07 04:25:24;;;;;;;3.33;2.50;;;9.20;99.90;;;;;;5111667;28;20028;-58
2022/12/07 04:27:49;;;;;;;3.30;2.60;;;9.30;99.90;;;;;;5111314;28;20019;-57
2022/12/07 04:30:15;;;;;;;3.15;2.63;;;9.20;99.90;;;;;;5111319;28;20024;-58
2022/12/07 04:32:41;;;;;;;2.70;2.20;;;9.20;99.90;;;;;;5111706;28;20508;-55
2022/12/07 04:35:07;;;;;;;3.20;2.55;;;9.20;99.90;;;;;;5111721;28;20028;-53
2022/12/07 04:37:33;;;;;;;2.65;2.22;;;9.10;99.90;;;;;;5111439;28;20469;-57
2022/12/07 04:39:58;;;;;;;3.53;2.60;;;9.10;99.90;;;;;;5111011;28;20045;-54
2022/12/07 04:42:24;;;;;;;3.47;2.00;;;9.10;99.90;;;;;;5110507;28;20030;-58
2022/12/07 04:44:50;;;;;;;3.28;2.10;;;9.10;99.90;;;;;;5111583;28;20208;-56
2022/12/07 04:47:16;;;;;;;2.85;2.13;;;9.00;99.90;;;;;;5111355;28;20045;-54
2022/12/07 04:49:42;;;;;;;2.85;2.33;;;9.00;99.90;;;;;;5110936;28;20092;-54
2022/12/07 04:52:07;;;;;;;3.05;2.50;;;9.00;99.90;;;;;;5111236;28;20032;-57
2022/12/07 04:54:33;;;;;;;3.17;2.47;;;9.00;99.90;;;;;;5111528;28;20031;-58
2022/12/07 04:56:59;;;;;;;3.13;2.33;;;9.00;99.90;;;;;;5111328;28;20481;-59
2022/12/07 04:59:24;;;;;;;3.03;2.47;;;8.90;99.90;;;;;;5110828;28;20472;-59
2022/12/07 05:01:50;;;;;;;3.08;2.40;;;8.90;99.90;;;;;;5111699;28;20030;-53
2022/12/07 05:04:17;;;;;;;3.20;2.30;;;8.90;99.90;;;;;;5111248;28;20027;-53
2022/12/07 05:06:43;;;;;;;2.97;2.38;;;8.90;99.90;;;;;;5111161;28;20023;-55
2022/12/07 05:09:08;;;;;;;2.70;2.45;;;8.90;99.90;;;;;;5110650;28;20046;-53
2022/12/07 05:11:40;;;;;;;6.28;3.33;;;9.00;99.90;;;;;;5111181;28;20027;-54
2022/12/07 05:14:17;;;;;;;3.30;2.28;;;9.10;99.90;;;;;;5111376;28;20042;-57
2022/12/07 05:16:43;;;;;;;3.03;2.33;;;9.10;99.90;;;;;;5111391;28;20095;-56
2022/12/07 05:19:09;;;;;;;3.20;2.38;;;9.20;99.90;;;;;;5110676;28;20098;-56
2022/12/07 05:21:35;;;;;;;3.10;2.28;;;9.20;99.90;;;;;;5111211;28;20161;-58
2022/12/07 05:24:02;;;;;;;3.28;2.38;;;9.20;99.90;;;;;;5111277;28;20028;-54
2022/12/07 05:26:27;;;;;;;4.30;2.53;;;9.20;99.90;;;;;;5113697;28;20027;-59
2022/12/07 05:28:55;;;;;;;4.05;2.40;;;9.20;99.90;;;;;;5114578;28;20031;-58
2022/12/07 05:31:21;;;;;;;3.75;2.22;;;9.20;99.90;;;;;;5114914;28;20477;-55
2022/12/07 05:33:47;;;;;;;3.67;2.72;;;9.20;99.90;;;;;;5113596;28;20072;-57
2022/12/07 05:36:13;;;;;;;3.85;2.65;;;9.10;99.90;;;;;;5114806;28;20476;-54
2022/12/07 05:38:39;;;;;;;4.00;2.30;;;9.10;99.90;;;;;;5114348;28;20031;-54
2022/12/07 05:41:06;;;;;;;3.30;2.45;;;9.10;99.90;;;;;;5114741;28;20039;-53
2022/12/07 05:43:33;;;;;;;4.15;2.55;;;9.00;99.90;;;;;;5114750;27;20052;-54
2022/12/07 05:45:59;;;;;;;3.08;2.58;;;9.00;99.90;;;;;;5114716;28;20028;-53
2022/12/07 05:48:25;;;;;;;3.33;2.50;;;8.90;99.90;;;;;;5114043;28;20484;-53
2022/12/07 05:50:52;;;;;;;3.38;2.45;;;8.90;99.90;;;;;;5113245;28;20106;-56
2022/12/07 05:53:18;;;;;;;3.67;2.60;;;8.90;99.90;;;;;;5114579;28;20016;-55
2022/12/07 05:55:44;;;;;;;5.65;2.80;;;8.90;99.90;;;;;;5114691;28;20024;-57
2022/12/07 06:00:55;;;;;;;4.03;2.67;;;8.80;99.90;;;;;;5114424;28;20034;-57
2022/12/07 06:03:21;;;;;;;3.35;2.50;;;8.80;99.90;;;;;;5114355;28;20028;-57
2022/12/07 06:05:47;;;;;;;3.92;2.50;;;8.80;99.90;;;;;;5114367;28;20373;-58
2022/12/07 06:08:14;;;;;;;2.95;2.25;;;8.90;99.90;;;;;;5113711;28;20028;-53
2022/12/07 06:10:40;;;;;;;3.22;2.28;;;8.90;99.90;;;;;;5112831;28;20073;-52
2022/12/07 06:13:05;;;;;;;3.45;2.63;;;9.00;99.90;;;;;;5114233;27;20035;-55
2022/12/07 06:15:31;;;;;;;3.92;3.00;;;9.00;99.90;;;;;;5114097;28;20045;-56
2022/12/07 06:17:56;;;;;;;3.65;2.55;;;9.10;99.90;;;;;;5113570;28;20483;-58
2022/12/07 06:20:22;;;;;;;3.05;2.50;;;9.10;99.90;;;;;;5113970;28;20098;-55
2022/12/07 06:22:48;;;;;;;4.50;3.10;;;9.10;99.90;;;;;;5113988;28;20015;-53
2022/12/07 06:25:13;;;;;;;3.97;2.58;;;9.10;99.90;;;;;;5114022;28;20034;-53
2022/12/07 06:27:39;;;;;;;4.07;2.78;;;9.10;99.90;;;;;;5114183;28;20024;-58
2022/12/07 06:30:06;;;;;;;3.35;2.55;;;9.10;99.90;;;;;;5113376;28;20027;-57
2022/12/07 06:32:33;;;;;;;3.20;2.30;;;9.10;99.90;;;;;;5112415;28;20060;-58
2022/12/07 06:34:59;;;;;;;4.25;2.92;;;9.10;99.90;;;;;;5113964;28;20031;-57
2022/12/07 06:37:25;;;;;;;4.28;3.10;;;9.00;99.90;;;;;;5113175;28;20020;-56
2022/12/07 06:39:51;;;;;;;3.40;2.40;;;9.00;99.90;;;;;;5113194;28;20501;-56
2022/12/07 06:42:16;;;;;;;3.85;2.80;;;9.00;99.90;;;;;;5113697;28;20120;-54
2022/12/07 06:44:42;;;;;;;3.67;2.83;;;9.00;99.90;;;;;;5113524;28;20024;-55
2022/12/07 06:47:09;;;;;;;4.70;3.30;;;8.90;99.90;;;;;;5113406;28;20066;-54
2022/12/07 06:49:35;;;;;;;4.07;3.10;;;8.90;99.90;;;;;;5112982;28;20385;-58
2022/12/07 06:52:00;;;;;;;5.43;3.40;;;8.80;99.90;;;;;;5113356;28;20023;-54
2022/12/07 06:54:26;;;;;;;3.80;3.03;;;8.80;99.90;;;;;;5113425;28;20047;-55
2022/12/07 06:56:51;;;;;;;4.63;3.35;;;8.80;99.90;;;;;;5113265;28;20080;-55
2022/12/07 06:59:17;;;;;;;4.15;3.20;;;8.80;99.90;;;;;;5112623;28;20027;-55
2022/12/07 07:01:43;;;;;;;5.03;3.40;;;8.80;99.90;;;;;;5113444;28;20031;-58
2022/12/07 07:04:08;;;;;;;5.05;3.40;;;8.80;99.90;;;;;;5113173;28;20059;-57
2022/12/07 07:06:34;;;;;;;5.75;3.85;;;8.80;99.90;;;;;;5113089;28;20418;-55
2022/12/07 07:09:00;;;;;;;4.45;3.25;;;8.80;99.90;;;;;;5112620;28;20308;-54
2022/12/07 07:11:26;;;;;;;5.05;3.45;;;8.90;99.90;;;;;;5112999;27;20019;-54
2022/12/07 07:13:51;;;;;;;4.43;3.38;;;9.00;99.90;;;;;;5112908;28;20130;-53
2022/12/07 07:16:17;;;;;;;4.93;3.42;;;9.10;99.90;;;;;;5112861;28;20517;-57
2022/12/07 07:18:42;;;;;;;4.30;3.05;;;9.10;99.90;;;;;;5112397;28;20086;-57
2022/12/07 07:21:08;;;;;;;5.30;3.40;;;9.10;99.90;;;;;;5112890;28;20665;-57
2022/12/07 07:23:34;;;;;;;3.63;3.17;;;9.10;99.90;;;;;;5112806;28;20020;-55
2022/12/07 07:25:59;;;;;;;4.20;3.13;;;9.10;99.90;;;;;;5112831;28;20031;-58
2022/12/07 07:28:25;;;;;;;4.47;3.53;;;9.10;99.90;;;;;;5112082;28;20031;-53
2022/12/07 07:30:51;;;;;;;9.98;3.40;;;9.10;99.90;;;;;;5112499;28;20028;-56
2022/12/07 07:33:16;;;;;;;4.28;3.17;;;9.10;99.90;;;;;;5112842;28;20354;-58
2022/12/07 07:35:42;;;;;;;5.10;3.63;;;9.10;99.90;;;;;;5112730;28;20110;-54
2022/12/07 07:38:08;;;;;;;4.53;3.35;;;9.00;99.90;;;;;;5111973;28;20046;-54
2022/12/07 07:40:34;;;;;;;10.93;7.72;;;9.00;99.90;;;;;;5112381;28;20082;-55
2022/12/07 07:42:59;;;;;;;16.30;9.32;;;8.90;99.90;;;;;;5112325;28;20484;-55
2022/12/07 07:45:26;;;;;;;12.40;8.90;;;8.70;99.80;;;;;;5112535;28;20051;-55
2022/12/07 07:47:52;;;;;;;14.20;8.95;;;8.40;99.50;;;;;;5111296;28;20031;-57
2022/12/07 07:50:18;;;;;;;13.98;9.35;;;8.20;99.90;;;;;;5112218;28;20020;-55
2022/12/07 07:52:44;;;;;;;15.40;9.25;;;8.10;99.90;;;;;;5112256;28;20039;-59
2022/12/07 07:55:11;;;;;;;14.98;8.52;;;8.00;99.90;;;;;;5112196;28;20069;-56
2022/12/07 07:57:38;;;;;;;15.45;9.15;;;8.10;99.90;;;;;;5111967;28;20477;-56
2022/12/07 08:00:12;;;;;;;15.32;8.85;;;8.30;99.90;;;;;;5111956;28;20089;-58
2022/12/07 08:02:38;;;;;;;15.30;8.95;;;8.30;99.90;;;;;;5112137;28;20044;-59
2022/12/07 08:05:04;;;;;;;16.10;8.45;;;8.40;99.90;;;;;;5112060;28;20121;-60
2022/12/07 08:07:29;;;;;;;14.88;8.98;;;8.50;99.90;;;;;;5111843;28;20488;-55
2022/12/07 08:09:55;;;;;;;10.93;7.70;;;8.50;99.90;;;;;;5111513;28;20069;-57
2022/12/07 08:12:20;;;;;;;12.93;7.75;;;8.50;99.90;;;;;;5111707;28;20050;-54
2022/12/07 08:14:46;;;;;;;11.02;8.27;;;8.60;99.90;;;;;;5111811;28;20027;-57
2022/12/07 08:17:12;;;;;;;11.50;7.90;;;8.60;99.90;;;;;;5111974;28;20055;-55
2022/12/07 08:19:38;;;;;;;10.45;7.57;;;8.60;99.90;;;;;;5111150;28;20020;-57
2022/12/07 08:22:04;;;;;;;10.75;7.47;;;8.60;99.90;;;;;;5111654;28;20055;-57
2022/12/07 08:24:30;;;;;;;10.95;6.63;;;8.60;99.90;;;;;;5111740;28;20034;-58
2022/12/07 08:26:56;;;;;;;9.90;6.95;;;8.60;99.90;;;;;;5111500;28;20023;-56
2022/12/07 08:29:21;;;;;;;9.10;6.50;;;8.60;99.90;;;;;;5111006;28;20089;-56
2022/12/07 08:31:47;;;;;;;9.15;6.85;;;8.60;99.90;;;;;;5111554;28;20030;-59
2022/12/07 08:34:13;;;;;;;8.60;6.50;;;8.60;99.90;;;;;;5111595;28;20019;-56
2022/12/07 08:36:39;;;;;;;8.75;6.30;;;8.60;99.90;;;;;;5110262;28;20020;-56
2022/12/07 08:39:05;;;;;;;8.57;5.75;;;8.60;99.90;;;;;;5109824;28;20358;-58
2022/12/07 08:41:31;;;;;;;8.55;6.18;;;8.50;99.90;;;;;;5111424;28;20028;-55
2022/12/07 08:43:57;;;;;;;9.02;6.57;;;8.50;99.90;;;;;;5111491;28;20077;-56
2022/12/07 08:46:42;;;;;;;9.10;5.97;;;8.50;99.90;;;;;;5111393;28;20427;-56
2022/12/07 08:49:18;;;;;;;8.98;6.35;;;8.50;99.90;;;;;;5111043;28;20036;-56
2022/12/07 08:51:44;;;;;;;8.00;6.03;;;8.50;99.90;;;;;;5111316;28;20024;-60
2022/12/07 08:54:17;;;;;;;6.88;5.50;;;8.50;99.90;;;;;;5111463;28;20020;-56
2022/12/07 08:56:43;;;;;;;6.55;4.97;;;8.50;99.90;;;;;;5111380;28;20063;-59
2022/12/07 08:59:10;;;;;;;11.38;6.15;;;8.50;99.90;;;;;;5111301;28;20102;-58
2022/12/07 09:01:36;;;;;;;7.82;5.75;;;8.50;99.90;;;;;;5115711;28;20024;-56
2022/12/07 09:04:01;;;;;;;9.95;5.90;;;8.50;99.90;;;;;;5115601;28;20450;-59
2022/12/07 09:06:27;;;;;;;6.70;4.82;;;8.50;99.90;;;;;;5115371;28;20023;-60
2022/12/07 09:08:57;;;;;;;8.32;5.25;;;8.50;99.90;;;;;;5114971;28;20392;-58
2022/12/07 09:11:23;;;;;;;8.07;5.35;;;8.50;99.90;;;;;;5115368;28;20024;-57
2022/12/07 09:13:49;;;;;;;6.72;4.65;;;8.50;99.90;;;;;;5115349;28;20020;-56
2022/12/07 09:16:15;;;;;;;7.75;5.35;;;8.50;99.90;;;;;;5115254;28;20441;-57
2022/12/07 09:18:41;;;;;;;7.57;5.15;;;8.50;99.90;;;;;;5114771;28;20024;-57
2022/12/07 09:21:07;;;;;;;7.72;5.38;;;8.50;99.90;;;;;;5115174;28;20027;-54
2022/12/07 09:23:33;;;;;;;6.90;5.03;;;8.50;99.90;;;;;;5115206;28;20027;-54
2022/12/07 09:26:02;;;;;;;7.30;5.20;;;8.50;99.90;;;;;;5113817;28;20023;-57
2022/12/07 09:28:28;;;;;;;5.85;4.50;;;8.50;99.90;;;;;;5114593;28;20026;-57
2022/12/07 09:30:54;;;;;;;6.53;4.85;;;8.50;99.90;;;;;;5114978;28;20023;-59
2022/12/07 09:33:20;;;;;;;6.85;4.90;;;8.50;99.90;;;;;;5114988;28;20442;-56
2022/12/07 09:35:46;;;;;;;6.28;4.65;;;8.50;99.90;;;;;;5114894;28;20026;-59
2022/12/07 09:38:13;;;;;;;6.47;4.43;;;8.50;99.90;;;;;;5114267;28;20030;-58
2022/12/07 09:40:38;;;;;;;7.93;4.80;;;8.50;99.90;;;;;;5114763;27;20081;-58
2022/12/07 09:43:04;;;;;;;6.35;4.32;;;8.50;99.90;;;;;;5113812;28;20019;-56
2022/12/07 09:45:33;;;;;;;7.10;4.30;;;8.60;99.90;;;;;;5114848;28;20035;-56
2022/12/07 09:47:59;;;;;;;6.13;4.57;;;8.60;99.90;;;;;;5114144;28;20023;-57
2022/12/07 09:50:27;;;;;;;7.22;5.00;;;8.50;99.90;;;;;;5114502;28;20023;-58
2022/12/07 09:52:55;;;;;;;6.07;4.35;;;8.50;99.90;;;;;;5114733;28;20080;-59
2022/12/07 09:55:26;;;;;;;6.40;4.57;;;8.50;99.90;;;;;;5114655;28;20019;-56
2022/12/07 09:57:53;;;;;;;6.30;4.63;;;8.60;99.90;;;;;;5114287;28;20377;-57
2022/12/07 10:00:21;;;;;;;8.23;4.10;;;8.60;99.90;;;;;;5114281;28;20098;-58
2022/12/07 10:02:56;;;;;;;6.75;3.88;;;8.60;99.90;;;;;;5114734;28;20019;-61
2022/12/07 10:05:30;;;;;;;4.57;3.85;;;8.50;99.90;;;;;;5114372;28;20024;-61
2022/12/07 10:07:55;;;;;;;6.15;3.90;;;8.40;99.90;;;;;;5112826;28;20427;-61
2022/12/07 10:10:31;;;;;;;5.57;3.78;;;8.40;99.90;;;;;;5114167;28;20020;-62
2022/12/07 10:13:04;;;;;;;9.13;3.65;;;8.40;99.90;;;;;;5113617;28;20100;-58
2022/12/07 10:15:45;;;;;;;6.03;3.83;;;8.40;99.90;;;;;;5114243;28;20023;-58
2022/12/07 10:18:19;;;;;;;6.60;3.90;;;8.40;99.90;;;;;;5113589;28;20469;-59
2022/12/07 10:20:47;;;;;;;5.45;3.65;;;8.40;99.90;;;;;;5114204;28;20032;-57
2022/12/07 10:23:17;;;;;;;6.10;4.00;;;8.40;99.90;;;;;;5112773;28;20074;-59
2022/12/07 10:25:44;;;;;;;4.90;3.33;;;8.40;99.90;;;;;;5113987;28;20429;-53
2022/12/07 10:28:16;;;;;;;4.32;3.10;;;8.40;99.90;;;;;;5113393;28;20035;-56
2022/12/07 10:31:15;;;;;;;6.15;3.58;;;8.50;99.90;;;;;;5112545;28;20509;-54
2022/12/07 10:33:59;;;;;;;4.55;3.42;;;8.50;99.90;;;;;;5113875;28;20020;-59
2022/12/07 10:36:35;;;;;;;4.90;3.30;;;8.50;99.90;;;;;;5113714;28;20024;-54
2022/12/07 10:39:17;;;;;;;4.38;3.35;;;8.50;99.90;;;;;;5113274;28;20261;-57
2022/12/07 10:42:03;;;;;;;5.35;3.67;;;8.50;99.90;;;;;;5113936;28;20028;-55
2022/12/07 10:44:31;;;;;;;3.53;2.85;;;8.50;99.90;;;;;;5113689;28;20077;-57
2022/12/07 10:47:06;;;;;;;6.07;3.30;;;8.60;99.90;;;;;;5113593;28;20044;-56
2022/12/07 10:49:54;;;;;;;5.03;2.95;;;8.60;99.90;;;;;;5113061;27;20020;-54
2022/12/07 10:52:56;;;;;;;3.97;2.80;;;8.60;99.90;;;;;;5113285;28;20130;-57
2022/12/07 10:55:53;;;;;;;3.75;2.95;;;8.60;99.90;;;;;;5113435;28;20035;-57
2022/12/07 10:58:27;;;;;;;4.75;2.92;;;8.60;99.90;;;;;;5111393;28;20072;-58
2022/12/07 11:01:28;;;;;;;4.40;2.35;;;8.60;99.90;;;;;;5113336;28;20024;-60
2022/12/07 11:04:19;;;;;;;3.83;2.55;;;8.70;99.90;;;;;;5113240;28;20034;-59
2022/12/07 11:07:10;;;;;;;5.85;2.95;;;8.70;99.90;;;;;;5113096;28;20102;-56
2022/12/07 11:10:14;;;;;;;4.13;2.85;;;8.70;99.90;;;;;;5112670;28;20043;-60
2022/12/07 11:12:55;;;;;;;3.00;2.42;;;8.70;99.90;;;;;;5069914;28;20028;-58
2022/12/07 11:15:40;;;;;;;5.20;2.70;;;8.70;99.90;;;;;;5092538;28;20043;-60
2022/12/07 11:18:23;;;;;;;3.92;2.53;;;8.70;99.90;;;;;;5112577;28;20032;-59
2022/12/07 11:21:06;;;;;;;5.53;2.50;;;8.70;99.90;;;;;;5112912;28;20019;-58
2022/12/07 11:24:01;;;;;;;4.28;2.67;;;8.70;99.90;;;;;;5111563;28;20027;-57
2022/12/07 11:26:34;;;;;;;3.40;2.58;;;8.70;99.90;;;;;;5112767;28;20020;-56
2022/12/07 11:29:22;;;;;;;3.60;2.20;;;8.70;99.90;;;;;;5112420;28;20110;-57
2022/12/07 11:32:15;;;;;;;3.45;2.53;;;8.70;99.90;;;;;;5091593;28;20500;-58
2022/12/07 11:34:53;;;;;;;3.95;2.55;;;8.70;99.90;;;;;;5112679;28;20046;-59
2022/12/07 11:37:25;;;;;;;2.92;2.22;;;8.70;99.90;;;;;;5112628;28;20066;-57
2022/12/07 11:39:55;;;;;;;3.42;2.22;;;8.70;99.90;;;;;;5110734;28;20061;-56
2022/12/07 11:42:27;;;;;;;2.92;2.35;;;8.70;99.90;;;;;;5112458;28;20012;-58
2022/12/07 11:44:59;;;;;;;3.05;2.20;;;8.70;99.90;;;;;;5112460;28;20038;-57
2022/12/07 11:47:47;;;;;;;4.18;2.40;;;8.70;99.90;;;;;;5112260;28;20028;-61
2022/12/07 11:50:42;;;;;;;2.97;2.40;;;8.70;99.90;;;;;;5112067;28;20024;-58
2022/12/07 11:53:07;;;;;;;6.47;2.50;;;8.70;99.90;;;;;;5112263;28;20028;-60
2022/12/07 11:55:55;;;;;;;2.95;2.25;;;8.80;99.90;;;;;;5112246;28;20461;-58
2022/12/07 11:58:32;;;;;;;3.33;2.17;;;8.80;99.90;;;;;;5111681;28;20027;-60
2022/12/07 12:01:13;;;;;;;2.78;2.20;;;8.80;99.90;;;;;;5110695;28;20442;-58
2022/12/07 12:03:46;;;;;;;3.00;2.20;;;8.80;99.90;;;;;;5112087;28;20091;-59
2022/12/07 12:06:12;;;;;;;2.58;2.10;;;8.80;99.90;;;;;;5112047;28;20114;-59
2022/12/07 12:09:13;;;;;;;3.22;2.08;;;8.70;99.90;;;;;;5110108;28;20028;-59
2022/12/07 12:12:20;;;;;;;3.15;2.17;;;8.70;99.90;;;;;;5112113;28;20027;-58
2022/12/07 12:14:52;;;;;;;3.58;2.42;;;8.70;99.90;;;;;;5111967;28;20020;-60
2022/12/07 12:17:39;;;;;;;4.65;2.20;;;8.70;99.90;;;;;;5111707;28;20073;-59
2022/12/07 12:20:29;;;;;;;2.70;2.10;;;8.70;99.90;;;;;;5111558;28;20020;-60
2022/12/07 12:23:01;;;;;;;2.72;1.90;;;8.70;99.90;;;;;;5111859;28;20050;-60
2022/12/07 12:25:31;;;;;;;2.58;2.00;;;8.70;99.90;;;;;;5111742;28;20435;-60
2022/12/07 12:27:59;;;;;;;2.50;1.80;;;8.70;99.90;;;;;;5111663;28;20034;-61
2022/12/07 12:30:39;;;;;;;2.10;1.67;;;8.70;99.90;;;;;;5111851;28;20019;-60
2022/12/07 12:33:26;;;;;;;5.10;1.83;;;8.70;99.90;;;;;;5111681;28;20408;-60
2022/12/07 12:36:23;;;;;;;2.55;1.83;;;8.70;99.90;;;;;;5111378;28;20023;-60
2022/12/07 12:39:10;;;;;;;2.63;2.00;;;8.70;99.90;;;;;;5111034;28;20026;-59
2022/12/07 12:44:17;;;;;;;2.47;1.85;;;8.70;99.90;;;;;;5111649;28;20032;-59
2022/12/07 12:46:57;;;;;;;2.50;2.08;;;8.70;99.90;;;;;;5111426;28;20554;-61
2022/12/07 12:49:22;;;;;;;2.10;1.77;;;8.70;99.90;;;;;;5110972;28;20035;-60
2022/12/07 12:51:51;;;;;;;2.50;1.80;;;8.70;99.90;;;;;;5110090;28;20457;-61
2022/12/07 12:54:31;;;;;;;2.00;1.70;;;8.70;99.90;;;;;;5111675;28;20088;-60
2022/12/07 12:57:12;;;;;;;2.00;1.73;;;8.70;99.90;;;;;;5111347;28;20027;-59
2022/12/07 12:59:52;;;;;;;2.42;1.98;;;8.80;99.90;;;;;;5110933;28;20038;-59
2022/12/07 13:02:33;;;;;;;2.00;1.63;;;8.70;99.90;;;;;;5111365;28;20031;-59
2022/12/07 13:05:07;;;;;;;2.30;1.70;;;8.70;99.90;;;;;;5111416;28;20369;-59
2022/12/07 13:07:51;;;;;;;2.05;1.45;;;8.70;99.90;;;;;;5111066;28;20034;-57
2022/12/07 13:10:32;;;;;;;2.70;1.50;;;8.80;99.90;;;;;;5111070;28;20417;-61
2022/12/07 13:13:04;;;;;;;1.90;1.50;;;8.80;99.90;;;;;;5111326;28;20034;-58
2022/12/07 13:15:37;;;;;;;1.92;1.40;;;8.70;99.90;;;;;;5111248;28;20024;-59
2022/12/07 13:18:23;;;;;;;1.67;1.42;;;8.80;99.90;;;;;;5110528;28;20027;-56
2022/12/07 13:21:01;;;;;;;1.60;1.40;;;8.80;99.90;;;;;;5099160;28;20122;-60
2022/12/07 13:23:45;;;;;;;2.53;1.90;;;8.80;99.90;;;;;;5111171;28;20420;-58
2022/12/07 13:26:30;;;;;;;1.83;1.40;;;8.80;99.90;;;;;;5111155;28;20107;-57
2022/12/07 13:29:14;;;;;;;1.95;1.50;;;8.80;99.90;;;;;;5110572;28;20016;-60
2022/12/07 13:31:51;;;;;;;1.92;1.60;;;8.80;99.90;;;;;;5111027;28;20114;-60
2022/12/07 13:34:36;;;;;;;1.75;1.50;;;8.80;99.90;;;;;;5111165;28;20020;-60
2022/12/07 13:37:32;;;;;;;1.98;1.58;;;8.80;99.90;;;;;;5110888;28;20031;-60
2022/12/07 13:40:00;;;;;;;3.10;1.42;;;8.80;99.90;;;;;;5102149;28;20400;-61
2022/12/07 13:42:32;;;;;;;2.17;1.75;;;8.80;99.90;;;;;;5111007;28;20028;-61
2022/12/07 13:45:00;;;;;;;1.90;1.50;;;8.80;99.90;;;;;;5111076;28;20103;-60
2022/12/07 13:47:41;;;;;;;1.80;1.42;;;8.80;99.90;;;;;;5111876;28;20509;-61
2022/12/07 13:50:27;;;;;;;1.65;1.40;;;8.80;99.90;;;;;;5114577;28;20024;-57
2022/12/07 13:52:57;;;;;;;2.38;1.40;;;8.80;99.90;;;;;;5114517;28;20035;-59
2022/12/07 13:55:23;;;;;;;1.60;1.45;;;8.80;99.90;;;;;;5114688;28;20484;-60
2022/12/07 13:57:51;;;;;;;1.90;1.50;;;8.80;99.90;;;;;;5114177;28;20046;-55
2022/12/07 14:00:20;;;;;;;2.00;1.70;;;8.80;99.90;;;;;;5114276;28;20020;-57
2022/12/07 14:03:03;;;;;;;3.40;1.63;;;8.80;99.90;;;;;;5114615;28;20062;-59
2022/12/07 14:05:34;;;;;;;2.20;1.48;;;8.80;99.90;;;;;;5114484;28;20103;-59
2022/12/07 14:08:03;;;;;;;2.25;1.35;;;8.90;99.90;;;;;;5113857;27;20098;-60
2022/12/07 14:10:32;;;;;;;2.83;1.23;;;8.90;99.90;;;;;;5114405;28;20019;-59
2022/12/07 14:12:59;;;;;;;3.45;1.50;;;8.80;99.90;;;;;;5114434;27;20080;-60
2022/12/07 14:15:30;;;;;;;1.73;1.63;;;8.90;99.90;;;;;;5114278;28;20442;-58
2022/12/07 14:17:57;;;;;;;1.77;1.30;;;8.90;99.90;;;;;;5113835;28;20020;-58
2022/12/07 14:20:37;;;;;;;2.20;1.58;;;8.90;99.90;;;;;;5114047;28;20035;-54
2022/12/07 14:23:10;;;;;;;1.60;1.50;;;8.90;99.90;;;;;;5114122;28;20039;-61
2022/12/07 14:25:47;;;;;;;2.08;1.40;;;8.90;99.90;;;;;;5114094;28;20517;-60
2022/12/07 14:28:31;;;;;;;2.20;1.58;;;8.90;99.90;;;;;;5113355;28;20081;-58
2022/12/07 14:30:57;;;;;;;1.67;1.48;;;8.90;99.90;;;;;;5113689;28;20034;-59
2022/12/07 14:33:24;;;;;;;2.13;1.48;;;8.90;99.90;;;;;;5114106;28;20024;-60
2022/12/07 14:35:50;;;;;;;1.67;1.30;;;8.90;99.90;;;;;;5113810;28;20076;-58
2022/12/07 14:38:18;;;;;;;2.67;1.30;;;8.90;99.90;;;;;;5113248;28;20024;-57
2022/12/07 14:40:44;;;;;;;1.67;1.35;;;8.90;99.90;;;;;;5113706;28;20085;-59
2022/12/07 14:43:12;;;;;;;2.08;1.40;;;8.90;99.90;;;;;;5113805;28;20023;-56
2022/12/07 14:45:39;;;;;;;1.38;1.08;;;8.90;99.90;;;;;;5113622;28;20382;-57
2022/12/07 14:48:05;;;;;;;1.73;1.40;;;8.90;99.90;;;;;;5113186;28;20020;-57
2022/12/07 14:50:37;;;;;;;2.17;1.50;;;8.90;99.90;;;;;;5113592;28;20024;-59
2022/12/07 14:53:13;;;;;;;1.95;1.63;;;8.90;99.90;;;;;;5113651;28;20079;-56
2022/12/07 14:55:39;;;;;;;2.42;1.83;;;8.90;99.90;;;;;;5114025;27;20035;-60
2022/12/07 14:58:04;;;;;;;2.75;1.75;;;8.90;99.90;;;;;;5112490;28;20024;-58
2022/12/07 15:00:30;;;;;;;2.53;1.83;;;8.90;99.90;;;;;;5113399;28;20027;-58
2022/12/07 15:02:57;;;;;;;2.75;1.65;;;8.90;99.90;;;;;;5113391;28;20027;-59
2022/12/07 15:05:23;;;;;;;3.00;1.90;;;8.90;99.90;;;;;;5113421;28;20446;-58
2022/12/07 15:07:49;;;;;;;3.13;2.10;;;8.90;99.90;;;;;;5113058;28;20024;-59
2022/12/07 15:10:20;;;;;;;3.25;2.15;;;8.90;99.90;;;;;;5112888;28;20110;-61
2022/12/07 15:12:46;;;;;;;3.30;2.05;;;8.90;99.90;;;;;;5112965;28;20527;-58
2022/12/07 15:15:12;;;;;;;3.67;1.90;;;8.80;99.90;;;;;;5113112;28;20048;-59
2022/12/07 15:17:37;;;;;;;2.42;1.75;;;8.80;99.90;;;;;;5111558;28;20055;-59
2022/12/07 15:20:04;;;;;;;3.83;1.98;;;8.80;99.90;;;;;;5112559;28;20068;-59
2022/12/07 15:22:31;;;;;;;3.55;2.33;;;8.90;99.90;;;;;;5113157;28;20701;-57
2022/12/07 15:24:57;;;;;;;3.25;2.13;;;8.80;99.90;;;;;;5111830;28;20023;-58
2022/12/07 15:27:22;;;;;;;2.95;2.05;;;8.90;99.90;;;;;;5112600;28;20083;-58